sensor_id;sensor_type;location;lat;lon;timestamp;pressure;altitude;pressure_sealevel;temperature;humidity
44996;BME280;30729;49.486;10.792;2022-09-12T00:02:12;97887.72;;;13.63;100.00
44996;BME280;30729;49.486;10.792;2022-09-12T00:04:38;97883.88;;;13.75;100.00
44996;BME280;30729;49.486;10.792;2022-09-12T00:07:03;97894.16;;;13.69;100.00
44996;BME280;30729;49.486;10.792;2022-09-12T00:09:29;97891.59;;;13.80;100.00
44996;BME280;30729;49.486;10.792;2022-09-12T00:11:54;97891.41;;;13.83;100.00
44996;BME280;30729;49.486;10.792;2022-09-12T00:14:19;97880.38;;;13.80;100.00
44996;BME280;30729;49.486;10.792;2022-09-12T00:16:45;97889.16;;;13.73;100.00
44996;BME280;30729;49.486;10.792;2022-09-12T00:19:11;97889.84;;;13.68;100.00
44996;BME280;30729;49.486;10.792;2022-09-12T00:21:37;97895.63;;;13.64;100.00
44996;BME280;30729;49.486;10.792;2022-09-12T00:24:04;97885.50;;;13.67;100.00
44996;BME280;30729;49.486;10.792;2022-09-12T00:26:30;97888.25;;;13.52;100.00
44996;BME280;30729;49.486;10.792;2022-09-12T00:28:55;97882.06;;;13.33;100.00
44996;BME280;30729;49.486;10.792;2022-09-12T00:31:23;97885.66;;;13.09;100.00
44996;BME280;30729;49.486;10.792;2022-09-12T00:33:49;97882.63;;;12.98;100.00
44996;BME280;30729;49.486;10.792;2022-09-12T00:36:20;97884.34;;;12.72;100.00
44996;BME280;30729;49.486;10.792;2022-09-12T00:38:47;97874.22;;;12.50;100.00
44996;BME280;30729;49.486;10.792;2022-09-12T00:41:25;97875.09;;;12.66;100.00
44996;BME280;30729;49.486;10.792;2022-09-12T00:46:52;97866.75;;;13.04;100.00
44996;BME280;30729;49.486;10.792;2022-09-12T00:51:54;97861.84;;;13.14;100.00
44996;BME280;30729;49.486;10.792;2022-09-12T00:54:27;97863.44;;;12.91;100.00
44996;BME280;30729;49.486;10.792;2022-09-12T00:56:57;97866.16;;;12.52;100.00
44996;BME280;30729;49.486;10.792;2022-09-12T00:59:31;97861.56;;;12.40;100.00
44996;BME280;30729;49.486;10.792;2022-09-12T01:01:59;97859.03;;;12.51;100.00
44996;BME280;30729;49.486;10.792;2022-09-12T01:04:25;97851.06;;;12.83;100.00
44996;BME280;30729;49.486;10.792;2022-09-12T01:06:53;97860.38;;;13.04;100.00
44996;BME280;30729;49.486;10.792;2022-09-12T01:09:21;97858.88;;;13.18;100.00
44996;BME280;30729;49.486;10.792;2022-09-12T01:11:48;97852.16;;;13.24;100.00
44996;BME280;30729;49.486;10.792;2022-09-12T01:14:16;97850.91;;;13.01;100.00
44996;BME280;30729;49.486;10.792;2022-09-12T01:16:42;97850.53;;;12.70;100.00
44996;BME280;30729;49.486;10.792;2022-09-12T01:19:20;97848.09;;;12.63;100.00
44996;BME280;30729;49.486;10.792;2022-09-12T01:24:50;97829.59;;;12.65;100.00
44996;BME280;30729;49.486;10.792;2022-09-12T01:30:25;97835.38;;;12.62;100.00
44996;BME280;30729;49.486;10.792;2022-09-12T01:43:34;97825.41;;;12.84;100.00
44996;BME280;30729;49.486;10.792;2022-09-12T01:48:35;97829.28;;;12.87;100.00
44996;BME280;30729;49.486;10.792;2022-09-12T01:51:12;97830.78;;;12.73;100.00
44996;BME280;30729;49.486;10.792;2022-09-12T01:53:47;97829.53;;;12.50;100.00
44996;BME280;30729;49.486;10.792;2022-09-12T01:56:18;97820.31;;;12.59;100.00
44996;BME280;30729;49.486;10.792;2022-09-12T01:58:53;97820.75;;;12.67;100.00
44996;BME280;30729;49.486;10.792;2022-09-12T02:01:23;97815.31;;;12.63;100.00
44996;BME280;30729;49.486;10.792;2022-09-12T02:03:56;97818.25;;;12.69;100.00
44996;BME280;30729;49.486;10.792;2022-09-12T02:06:26;97820.00;;;12.81;100.00
44996;BME280;30729;49.486;10.792;2022-09-12T02:09:00;97812.22;;;12.85;100.00
44996;BME280;30729;49.486;10.792;2022-09-12T02:11:30;97822.59;;;12.70;100.00
44996;BME280;30729;49.486;10.792;2022-09-12T02:14:03;97816.47;;;12.56;100.00
44996;BME280;30729;49.486;10.792;2022-09-12T02:16:39;97817.47;;;12.44;100.00
44996;BME280;30729;49.486;10.792;2022-09-12T02:19:10;97811.94;;;12.59;100.00
44996;BME280;30729;49.486;10.792;2022-09-12T02:21:38;97816.41;;;12.66;100.00
44996;BME280;30729;49.486;10.792;2022-09-12T02:24:09;97808.84;;;12.57;100.00
44996;BME280;30729;49.486;10.792;2022-09-12T02:26:43;97800.06;;;12.49;100.00
44996;BME280;30729;49.486;10.792;2022-09-12T02:29:12;97811.28;;;12.40;100.00
44996;BME280;30729;49.486;10.792;2022-09-12T02:37:31;97809.75;;;12.39;100.00
44996;BME280;30729;49.486;10.792;2022-09-12T02:39:58;97815.03;;;12.37;100.00
44996;BME280;30729;49.486;10.792;2022-09-12T02:42:24;97815.94;;;12.43;100.00
44996;BME280;30729;49.486;10.792;2022-09-12T02:44:51;97807.72;;;12.40;100.00
44996;BME280;30729;49.486;10.792;2022-09-12T02:47:25;97804.63;;;12.38;100.00
44996;BME280;30729;49.486;10.792;2022-09-12T02:49:52;97810.56;;;12.30;100.00
44996;BME280;30729;49.486;10.792;2022-09-12T02:52:18;97805.16;;;12.27;100.00
44996;BME280;30729;49.486;10.792;2022-09-12T02:54:44;97794.47;;;12.25;100.00
44996;BME280;30729;49.486;10.792;2022-09-12T02:57:18;97805.50;;;12.20;100.00
44996;BME280;30729;49.486;10.792;2022-09-12T02:59:45;97805.50;;;12.20;100.00
44996;BME280;30729;49.486;10.792;2022-09-12T03:10:24;97796.22;;;12.14;100.00
44996;BME280;30729;49.486;10.792;2022-09-12T03:21:27;97795.53;;;12.28;100.00
44996;BME280;30729;49.486;10.792;2022-09-12T03:24:12;97795.19;;;12.35;100.00
44996;BME280;30729;49.486;10.792;2022-09-12T03:26:55;97805.94;;;12.27;100.00
44996;BME280;30729;49.486;10.792;2022-09-12T03:29:24;97797.13;;;12.20;100.00
44996;BME280;30729;49.486;10.792;2022-09-12T03:31:52;97805.25;;;12.08;100.00
44996;BME280;30729;49.486;10.792;2022-09-12T03:34:19;97793.34;;;11.56;100.00
44996;BME280;30729;49.486;10.792;2022-09-12T03:36:45;97808.25;;;11.35;100.00
44996;BME280;30729;49.486;10.792;2022-09-12T03:39:11;97802.59;;;11.11;100.00
44996;BME280;30729;49.486;10.792;2022-09-12T03:41:36;97808.16;;;11.11;100.00
44996;BME280;30729;49.486;10.792;2022-09-12T03:44:02;97805.69;;;11.04;100.00
44996;BME280;30729;49.486;10.792;2022-09-12T03:46:27;97805.34;;;11.20;100.00
44996;BME280;30729;49.486;10.792;2022-09-12T03:48:53;97804.75;;;11.16;100.00
44996;BME280;30729;49.486;10.792;2022-09-12T03:51:18;97807.34;;;11.10;100.00
44996;BME280;30729;49.486;10.792;2022-09-12T03:53:43;97803.00;;;11.28;100.00
44996;BME280;30729;49.486;10.792;2022-09-12T03:56:12;97807.34;;;11.38;100.00
44996;BME280;30729;49.486;10.792;2022-09-12T03:58:38;97803.88;;;11.52;100.00
44996;BME280;30729;49.486;10.792;2022-09-12T04:01:14;97803.84;;;11.62;100.00
44996;BME280;30729;49.486;10.792;2022-09-12T04:03:41;97805.25;;;11.66;100.00
44996;BME280;30729;49.486;10.792;2022-09-12T04:06:08;97808.81;;;11.57;100.00
44996;BME280;30729;49.486;10.792;2022-09-12T04:08:35;97802.59;;;11.63;100.00
44996;BME280;30729;49.486;10.792;2022-09-12T04:11:05;97801.34;;;11.73;100.00
44996;BME280;30729;49.486;10.792;2022-09-12T04:13:31;97798.00;;;11.59;100.00
44996;BME280;30729;49.486;10.792;2022-09-12T04:16:00;97806.94;;;11.73;100.00
44996;BME280;30729;49.486;10.792;2022-09-12T04:18:26;97799.00;;;11.71;100.00
44996;BME280;30729;49.486;10.792;2022-09-12T04:20:51;97795.50;;;11.62;100.00
44996;BME280;30729;49.486;10.792;2022-09-12T04:23:17;97801.06;;;11.62;100.00
44996;BME280;30729;49.486;10.792;2022-09-12T04:25:43;97800.91;;;11.65;100.00
44996;BME280;30729;49.486;10.792;2022-09-12T04:28:08;97804.59;;;11.71;100.00
44996;BME280;30729;49.486;10.792;2022-09-12T04:30:34;97800.38;;;11.76;100.00
44996;BME280;30729;49.486;10.792;2022-09-12T04:32:59;97807.53;;;11.77;100.00
44996;BME280;30729;49.486;10.792;2022-09-12T04:35:25;97801.03;;;11.71;100.00
44996;BME280;30729;49.486;10.792;2022-09-12T04:37:50;97803.56;;;11.59;100.00
44996;BME280;30729;49.486;10.792;2022-09-12T04:40:16;97811.91;;;11.69;100.00
44996;BME280;30729;49.486;10.792;2022-09-12T04:42:41;97808.75;;;11.76;100.00
44996;BME280;30729;49.486;10.792;2022-09-12T04:45:07;97803.66;;;11.74;100.00
44996;BME280;30729;49.486;10.792;2022-09-12T04:47:32;97802.13;;;11.73;100.00
44996;BME280;30729;49.486;10.792;2022-09-12T04:49:58;97801.34;;;11.73;100.00
44996;BME280;30729;49.486;10.792;2022-09-12T04:52:23;97804.44;;;11.75;100.00
44996;BME280;30729;49.486;10.792;2022-09-12T04:54:49;97799.22;;;11.68;100.00
44996;BME280;30729;49.486;10.792;2022-09-12T04:57:21;97799.78;;;11.72;100.00
44996;BME280;30729;49.486;10.792;2022-09-12T04:59:46;97807.09;;;11.69;100.00
44996;BME280;30729;49.486;10.792;2022-09-12T05:02:12;97805.09;;;11.60;100.00
44996;BME280;30729;49.486;10.792;2022-09-12T05:04:37;97803.22;;;11.67;100.00
44996;BME280;30729;49.486;10.792;2022-09-12T05:07:02;97808.78;;;11.67;100.00
44996;BME280;30729;49.486;10.792;2022-09-12T05:09:28;97801.53;;;11.60;100.00
44996;BME280;30729;49.486;10.792;2022-09-12T05:11:53;97813.16;;;11.68;100.00
44996;BME280;30729;49.486;10.792;2022-09-12T05:14:18;97813.44;;;11.70;100.00
44996;BME280;30729;49.486;10.792;2022-09-12T05:16:44;97814.38;;;11.67;100.00
44996;BME280;30729;49.486;10.792;2022-09-12T05:19:10;97816.56;;;11.63;100.00
44996;BME280;30729;49.486;10.792;2022-09-12T05:21:36;97814.97;;;11.71;100.00
44996;BME280;30729;49.486;10.792;2022-09-12T05:24:02;97818.53;;;11.71;100.00
44996;BME280;30729;49.486;10.792;2022-09-12T05:26:29;97810.63;;;11.79;100.00
44996;BME280;30729;49.486;10.792;2022-09-12T05:28:54;97814.94;;;11.80;100.00
44996;BME280;30729;49.486;10.792;2022-09-12T05:31:22;97820.69;;;11.76;100.00
44996;BME280;30729;49.486;10.792;2022-09-12T05:33:50;97826.75;;;11.75;100.00
44996;BME280;30729;49.486;10.792;2022-09-12T05:36:19;97822.56;;;11.79;100.00
44996;BME280;30729;49.486;10.792;2022-09-12T05:38:46;97817.59;;;11.83;100.00
44996;BME280;30729;49.486;10.792;2022-09-12T05:41:15;97821.78;;;11.79;100.00
44996;BME280;30729;49.486;10.792;2022-09-12T05:43:41;97821.78;;;11.79;100.00
44996;BME280;30729;49.486;10.792;2022-09-12T05:46:14;97832.94;;;11.79;100.00
44996;BME280;30729;49.486;10.792;2022-09-12T05:48:42;97833.59;;;11.83;100.00
44996;BME280;30729;49.486;10.792;2022-09-12T05:51:16;97827.31;;;11.97;100.00
44996;BME280;30729;49.486;10.792;2022-09-12T05:53:48;97837.09;;;11.93;100.00
44996;BME280;30729;49.486;10.792;2022-09-12T05:56:16;97836.47;;;11.98;100.00
44996;BME280;30729;49.486;10.792;2022-09-12T05:58:44;97826.81;;;12.08;100.00
44996;BME280;30729;49.486;10.792;2022-09-12T06:01:13;97842.44;;;12.15;100.00
44996;BME280;30729;49.486;10.792;2022-09-12T06:03:41;97834.56;;;12.13;100.00
44996;BME280;30729;49.486;10.792;2022-09-12T06:06:08;97839.38;;;12.13;100.00
44996;BME280;30729;49.486;10.792;2022-09-12T06:08:33;97839.38;;;12.13;100.00
44996;BME280;30729;49.486;10.792;2022-09-12T06:11:02;97842.56;;;12.20;100.00
44996;BME280;30729;49.486;10.792;2022-09-12T06:13:33;97843.41;;;12.12;100.00
44996;BME280;30729;49.486;10.792;2022-09-12T06:16:06;97841.50;;;12.18;100.00
44996;BME280;30729;49.486;10.792;2022-09-12T06:18:33;97836.97;;;12.29;100.00
44996;BME280;30729;49.486;10.792;2022-09-12T06:21:05;97836.53;;;12.22;100.00
44996;BME280;30729;49.486;10.792;2022-09-12T06:23:32;97843.78;;;12.28;100.00
44996;BME280;30729;49.486;10.792;2022-09-12T06:25:57;97833.69;;;12.31;100.00
44996;BME280;30729;49.486;10.792;2022-09-12T06:28:23;97842.91;;;12.46;100.00
44996;BME280;30729;49.486;10.792;2022-09-12T06:30:49;97844.69;;;12.58;100.00
44996;BME280;30729;49.486;10.792;2022-09-12T06:33:14;97839.03;;;12.68;100.00
44996;BME280;30729;49.486;10.792;2022-09-12T06:35:40;97836.19;;;12.77;100.00
44996;BME280;30729;49.486;10.792;2022-09-12T06:38:06;97835.84;;;12.84;100.00
44996;BME280;30729;49.486;10.792;2022-09-12T06:40:31;97845.09;;;12.90;100.00
44996;BME280;30729;49.486;10.792;2022-09-12T06:42:57;97837.97;;;12.89;100.00
44996;BME280;30729;49.486;10.792;2022-09-12T06:45:23;97837.97;;;12.89;100.00
44996;BME280;30729;49.486;10.792;2022-09-12T06:47:48;97839.94;;;12.74;100.00
44996;BME280;30729;49.486;10.792;2022-09-12T06:50:13;97834.56;;;12.85;100.00
44996;BME280;30729;49.486;10.792;2022-09-12T06:52:39;97835.16;;;12.89;100.00
44996;BME280;30729;49.486;10.792;2022-09-12T06:55:04;97833.91;;;12.90;100.00
44996;BME280;30729;49.486;10.792;2022-09-12T06:57:30;97841.44;;;12.99;100.00
44996;BME280;30729;49.486;10.792;2022-09-12T06:59:56;97828.38;;;13.20;100.00
44996;BME280;30729;49.486;10.792;2022-09-12T07:02:23;97835.78;;;13.32;100.00
44996;BME280;30729;49.486;10.792;2022-09-12T07:04:50;97834.22;;;13.31;100.00
44996;BME280;30729;49.486;10.792;2022-09-12T07:07:16;97838.84;;;13.34;100.00
44996;BME280;30729;49.486;10.792;2022-09-12T07:09:41;97826.34;;;13.44;100.00
44996;BME280;30729;49.486;10.792;2022-09-12T07:12:07;97834.63;;;13.53;100.00
44996;BME280;30729;49.486;10.792;2022-09-12T07:14:32;97831.53;;;13.51;100.00
44996;BME280;30729;49.486;10.792;2022-09-12T07:16:58;97829.13;;;13.59;100.00
44996;BME280;30729;49.486;10.792;2022-09-12T07:19:23;97826.41;;;13.65;100.00
44996;BME280;30729;49.486;10.792;2022-09-12T07:21:49;97828.94;;;13.63;100.00
44996;BME280;30729;49.486;10.792;2022-09-12T07:24:14;97826.03;;;13.72;100.00
44996;BME280;30729;49.486;10.792;2022-09-12T07:26:40;97821.41;;;13.69;100.00
44996;BME280;30729;49.486;10.792;2022-09-12T07:29:08;97823.25;;;13.72;100.00
44996;BME280;30729;49.486;10.792;2022-09-12T07:31:37;97829.59;;;13.87;100.00
44996;BME280;30729;49.486;10.792;2022-09-12T07:34:04;97830.94;;;13.77;100.00
44996;BME280;30729;49.486;10.792;2022-09-12T07:36:30;97834.63;;;13.83;100.00
44996;BME280;30729;49.486;10.792;2022-09-12T07:38:56;97839.13;;;13.95;100.00
44996;BME280;30729;49.486;10.792;2022-09-12T07:41:24;97841.47;;;13.82;100.00
44996;BME280;30729;49.486;10.792;2022-09-12T07:43:55;97836.56;;;13.92;100.00
44996;BME280;30729;49.486;10.792;2022-09-12T07:46:21;97840.00;;;14.01;100.00
44996;BME280;30729;49.486;10.792;2022-09-12T07:48:55;97841.94;;;14.10;100.00
44996;BME280;30729;49.486;10.792;2022-09-12T07:51:22;97833.59;;;14.16;100.00
44996;BME280;30729;49.486;10.792;2022-09-12T07:53:48;97837.63;;;14.29;100.00
44996;BME280;30729;49.486;10.792;2022-09-12T07:56:14;97841.56;;;14.38;100.00
44996;BME280;30729;49.486;10.792;2022-09-12T07:58:41;97843.09;;;14.53;100.00
44996;BME280;30729;49.486;10.792;2022-09-12T08:01:12;97843.78;;;14.48;100.00
44996;BME280;30729;49.486;10.792;2022-09-12T08:03:42;97842.22;;;14.47;100.00
44996;BME280;30729;49.486;10.792;2022-09-12T08:06:10;97848.44;;;14.36;100.00
44996;BME280;30729;49.486;10.792;2022-09-12T08:08:36;97846.09;;;14.35;100.00
44996;BME280;30729;49.486;10.792;2022-09-12T08:11:05;97848.41;;;14.51;100.00
44996;BME280;30729;49.486;10.792;2022-09-12T08:13:32;97851.53;;;14.53;100.00
44996;BME280;30729;49.486;10.792;2022-09-12T08:15:59;97845.22;;;14.58;100.00
44996;BME280;30729;49.486;10.792;2022-09-12T08:18:29;97859.16;;;14.73;100.00
44996;BME280;30729;49.486;10.792;2022-09-12T08:20:59;97850.03;;;14.78;100.00
44996;BME280;30729;49.486;10.792;2022-09-12T08:23:25;97854.88;;;14.78;100.00
44996;BME280;30729;49.486;10.792;2022-09-12T08:25:57;97851.59;;;15.00;100.00
44996;BME280;30729;49.486;10.792;2022-09-12T08:28:24;97859.38;;;15.10;100.00
44996;BME280;30729;49.486;10.792;2022-09-12T08:30:50;97849.00;;;14.96;100.00
44996;BME280;30729;49.486;10.792;2022-09-12T08:33:15;97850.41;;;14.86;100.00
44996;BME280;30729;49.486;10.792;2022-09-12T08:35:41;97846.75;;;15.21;100.00
44996;BME280;30729;49.486;10.792;2022-09-12T08:38:06;97848.19;;;15.62;100.00
44996;BME280;30729;49.486;10.792;2022-09-12T08:40:33;97849.81;;;15.69;100.00
44996;BME280;30729;49.486;10.792;2022-09-12T08:46:18;97849.06;;;15.48;100.00
44996;BME280;30729;49.486;10.792;2022-09-12T08:48:47;97855.53;;;15.54;100.00
44996;BME280;30729;49.486;10.792;2022-09-12T08:51:14;97848.50;;;15.65;100.00
44996;BME280;30729;49.486;10.792;2022-09-12T08:53:41;97853.19;;;15.73;100.00
44996;BME280;30729;49.486;10.792;2022-09-12T08:56:08;97846.97;;;15.95;100.00
44996;BME280;30729;49.486;10.792;2022-09-12T08:58:39;97856.38;;;16.24;100.00
44996;BME280;30729;49.486;10.792;2022-09-12T09:06:43;97862.00;;;17.09;100.00
44996;BME280;30729;49.486;10.792;2022-09-12T09:12:36;97860.56;;;17.42;100.00
44996;BME280;30729;49.486;10.792;2022-09-12T09:18:00;97846.56;;;17.70;100.00
44996;BME280;30729;49.486;10.792;2022-09-12T09:20:34;97849.88;;;17.63;100.00
44996;BME280;30729;49.486;10.792;2022-09-12T09:26:03;97844.78;;;18.29;100.00
44996;BME280;30729;49.486;10.792;2022-09-12T09:28:45;97834.47;;;18.59;100.00
44996;BME280;30729;49.486;10.792;2022-09-12T09:31:16;97835.50;;;18.73;100.00
44996;BME280;30729;49.486;10.792;2022-09-12T09:33:42;97829.53;;;18.94;100.00
44996;BME280;30729;49.486;10.792;2022-09-12T09:39:04;97822.56;;;19.00;100.00
44996;BME280;30729;49.486;10.792;2022-09-12T09:44:14;97818.56;;;19.37;100.00
44996;BME280;30729;49.486;10.792;2022-09-12T09:46:39;97824.81;;;19.60;100.00
44996;BME280;30729;49.486;10.792;2022-09-12T09:49:05;97827.88;;;19.68;100.00
44996;BME280;30729;49.486;10.792;2022-09-12T09:51:37;97821.22;;;19.59;100.00
44996;BME280;30729;49.486;10.792;2022-09-12T09:54:17;97818.69;;;19.92;100.00
44996;BME280;30729;49.486;10.792;2022-09-12T09:56:45;97816.69;;;20.17;100.00
44996;BME280;30729;49.486;10.792;2022-09-12T09:59:24;97814.84;;;20.49;100.00
44996;BME280;30729;49.486;10.792;2022-09-12T10:01:53;97809.09;;;20.60;100.00
44996;BME280;30729;49.486;10.792;2022-09-12T10:06:45;97804.94;;;20.86;100.00
44996;BME280;30729;49.486;10.792;2022-09-12T10:11:38;97809.59;;;21.02;100.00
44996;BME280;30729;49.486;10.792;2022-09-12T10:14:04;97807.03;;;21.04;100.00
44996;BME280;30729;49.486;10.792;2022-09-12T10:16:50;97814.09;;;21.17;100.00
44996;BME280;30729;49.486;10.792;2022-09-12T10:19:32;97809.06;;;21.47;100.00
44996;BME280;30729;49.486;10.792;2022-09-12T10:21:58;97798.59;;;21.55;100.00
44996;BME280;30729;49.486;10.792;2022-09-12T10:24:29;97811.03;;;21.52;100.00
44996;BME280;30729;49.486;10.792;2022-09-12T10:27:06;97800.13;;;21.75;100.00
44996;BME280;30729;49.486;10.792;2022-09-12T10:29:37;97792.81;;;21.80;100.00
44996;BME280;30729;49.486;10.792;2022-09-12T10:32:06;97799.44;;;22.01;100.00
44996;BME280;30729;49.486;10.792;2022-09-12T10:34:39;97794.28;;;22.19;100.00
44996;BME280;30729;49.486;10.792;2022-09-12T10:37:08;97790.28;;;22.41;100.00
44996;BME280;30729;49.486;10.792;2022-09-12T10:39:36;97789.56;;;22.21;100.00
44996;BME280;30729;49.486;10.792;2022-09-12T10:42:03;97791.13;;;22.35;100.00
44996;BME280;30729;49.486;10.792;2022-09-12T10:44:31;97789.72;;;22.82;100.00
44996;BME280;30729;49.486;10.792;2022-09-12T10:46:58;97791.91;;;23.02;100.00
44996;BME280;30729;49.486;10.792;2022-09-12T10:49:30;97799.56;;;23.07;100.00
44996;BME280;30729;49.486;10.792;2022-09-12T10:52:34;97800.88;;;22.80;100.00
44996;BME280;30729;49.486;10.792;2022-09-12T10:54:59;97791.91;;;23.02;100.00
44996;BME280;30729;49.486;10.792;2022-09-12T10:57:50;97798.31;;;23.29;100.00
44996;BME280;30729;49.486;10.792;2022-09-12T11:00:19;97786.66;;;23.06;100.00
44996;BME280;30729;49.486;10.792;2022-09-12T11:03:13;97784.16;;;23.50;100.00
44996;BME280;30729;49.486;10.792;2022-09-12T11:05:55;97785.75;;;23.25;100.00
44996;BME280;30729;49.486;10.792;2022-09-12T11:16:31;97772.63;;;23.22;100.00
44996;BME280;30729;49.486;10.792;2022-09-12T11:25:16;97759.31;;;23.17;100.00
44996;BME280;30729;49.486;10.792;2022-09-12T11:30:17;97752.22;;;23.44;100.00
44996;BME280;30729;49.486;10.792;2022-09-12T11:35:21;97743.09;;;23.38;100.00
44996;BME280;30729;49.486;10.792;2022-09-12T11:40:47;97752.16;;;23.71;100.00
44996;BME280;30729;49.486;10.792;2022-09-12T11:45:43;97746.53;;;23.57;100.00
44996;BME280;30729;49.486;10.792;2022-09-12T11:48:38;97730.06;;;24.05;100.00
44996;BME280;30729;49.486;10.792;2022-09-12T11:51:20;97735.56;;;24.03;100.00
44996;BME280;30729;49.486;10.792;2022-09-12T11:53:59;97736.06;;;24.44;100.00
44996;BME280;30729;49.486;10.792;2022-09-12T11:56:26;97730.22;;;23.79;100.00
44996;BME280;30729;49.486;10.792;2022-09-12T11:59:01;97727.59;;;24.02;100.00
44996;BME280;30729;49.486;10.792;2022-09-12T12:01:34;97721.31;;;23.61;98.93
44996;BME280;30729;49.486;10.792;2022-09-12T12:04:07;97728.81;;;23.51;99.04
44996;BME280;30729;49.486;10.792;2022-09-12T12:06:56;97732.84;;;23.56;99.83
44996;BME280;30729;49.486;10.792;2022-09-12T12:09:26;97724.28;;;23.90;100.00
44996;BME280;30729;49.486;10.792;2022-09-12T12:11:53;97727.72;;;23.96;98.52
44996;BME280;30729;49.486;10.792;2022-09-12T12:14:34;97726.94;;;23.33;100.00
44996;BME280;30729;49.486;10.792;2022-09-12T12:17:01;97717.41;;;23.09;100.00
44996;BME280;30729;49.486;10.792;2022-09-12T12:19:32;97721.47;;;23.01;100.00
44996;BME280;30729;49.486;10.792;2022-09-12T12:22:17;97716.50;;;22.41;100.00
44996;BME280;30729;49.486;10.792;2022-09-12T12:27:57;97703.00;;;22.94;100.00
44996;BME280;30729;49.486;10.792;2022-09-12T12:36:04;97705.81;;;23.62;100.00
44996;BME280;30729;49.486;10.792;2022-09-12T12:38:32;97704.25;;;23.61;100.00
44996;BME280;30729;49.486;10.792;2022-09-12T12:43:45;97694.25;;;23.81;100.00
44996;BME280;30729;49.486;10.792;2022-09-12T12:46:27;97697.88;;;24.10;100.00
44996;BME280;30729;49.486;10.792;2022-09-12T12:49:09;97689.22;;;23.95;99.21
44996;BME280;30729;49.486;10.792;2022-09-12T12:51:53;97690.84;;;23.83;100.00
44996;BME280;30729;49.486;10.792;2022-09-12T12:59:31;97682.31;;;23.62;100.00
44996;BME280;30729;49.486;10.792;2022-09-12T13:01:57;97691.25;;;23.45;100.00
44996;BME280;30729;49.486;10.792;2022-09-12T13:04:27;97688.88;;;23.36;100.00
44996;BME280;30729;49.486;10.792;2022-09-12T13:07:05;97679.72;;;23.30;100.00
44996;BME280;30729;49.486;10.792;2022-09-12T13:09:36;97684.66;;;23.50;100.00
44996;BME280;30729;49.486;10.792;2022-09-12T13:12:09;97685.88;;;23.21;100.00
44996;BME280;30729;49.486;10.792;2022-09-12T13:14:49;97671.47;;;22.71;100.00
44996;BME280;30729;49.486;10.792;2022-09-12T13:17:39;97671.88;;;22.88;100.00
44996;BME280;30729;49.486;10.792;2022-09-12T13:22:42;97666.72;;;22.87;100.00
44996;BME280;30729;49.486;10.792;2022-09-12T13:25:23;97667.78;;;23.10;100.00
44996;BME280;30729;49.486;10.792;2022-09-12T13:28:14;97657.06;;;22.69;100.00
44996;BME280;30729;49.486;10.792;2022-09-12T13:31:01;97658.88;;;22.93;100.00
44996;BME280;30729;49.486;10.792;2022-09-12T13:44:03;97640.94;;;22.51;100.00
44996;BME280;30729;49.486;10.792;2022-09-12T13:46:35;97635.28;;;22.98;100.00
44996;BME280;30729;49.486;10.792;2022-09-12T13:49:09;97626.38;;;23.36;100.00
44996;BME280;30729;49.486;10.792;2022-09-12T13:51:37;97635.66;;;24.07;99.86
44996;BME280;30729;49.486;10.792;2022-09-12T13:54:04;97632.38;;;24.68;95.74
44996;BME280;30729;49.486;10.792;2022-09-12T13:56:29;97631.84;;;24.84;88.41
44996;BME280;30729;49.486;10.792;2022-09-12T13:59:00;97625.78;;;24.80;84.79
44996;BME280;30729;49.486;10.792;2022-09-12T14:01:40;97626.13;;;24.77;87.67
44996;BME280;30729;49.486;10.792;2022-09-12T14:04:23;97625.81;;;24.96;82.48
44996;BME280;30729;49.486;10.792;2022-09-12T14:07:15;97627.97;;;25.26;77.79
44996;BME280;30729;49.486;10.792;2022-09-12T14:09:45;97625.16;;;25.56;78.90
44996;BME280;30729;49.486;10.792;2022-09-12T14:14:51;97617.16;;;25.62;77.51
44996;BME280;30729;49.486;10.792;2022-09-12T14:19:48;97623.75;;;24.52;90.42
44996;BME280;30729;49.486;10.792;2022-09-12T14:22:13;97614.91;;;24.35;85.23
44996;BME280;30729;49.486;10.792;2022-09-12T14:24:45;97610.13;;;24.58;86.67
44996;BME280;30729;49.486;10.792;2022-09-12T14:27:16;97607.34;;;24.81;85.26
44996;BME280;30729;49.486;10.792;2022-09-12T14:29:43;97605.19;;;24.67;86.56
44996;BME280;30729;49.486;10.792;2022-09-12T14:32:20;97596.59;;;25.10;80.93
44996;BME280;30729;49.486;10.792;2022-09-12T14:37:36;97598.06;;;24.81;79.49
44996;BME280;30729;49.486;10.792;2022-09-12T14:40:11;97597.00;;;25.60;78.92
44996;BME280;30729;49.486;10.792;2022-09-12T14:42:40;97592.06;;;25.84;73.28
44996;BME280;30729;49.486;10.792;2022-09-12T14:45:30;97586.66;;;26.19;72.20
44996;BME280;30729;49.486;10.792;2022-09-12T14:47:56;97595.47;;;25.75;67.43
44996;BME280;30729;49.486;10.792;2022-09-12T14:50:25;97592.00;;;26.15;68.97
44996;BME280;30729;49.486;10.792;2022-09-12T14:53:22;97592.72;;;26.23;69.92
44996;BME280;30729;49.486;10.792;2022-09-12T14:56:07;97579.69;;;25.89;72.07
44996;BME280;30729;49.486;10.792;2022-09-12T14:58:34;97575.06;;;26.65;69.34
44996;BME280;30729;49.486;10.792;2022-09-12T15:05:57;97575.25;;;26.19;64.78
44996;BME280;30729;49.486;10.792;2022-09-12T15:08:23;97567.06;;;26.71;63.26
44996;BME280;30729;49.486;10.792;2022-09-12T15:10:49;97570.25;;;26.75;66.36
44996;BME280;30729;49.486;10.792;2022-09-12T15:13:17;97576.94;;;26.22;65.67
44996;BME280;30729;49.486;10.792;2022-09-12T15:15:46;97572.44;;;26.03;69.98
44996;BME280;30729;49.486;10.792;2022-09-12T15:18:12;97576.50;;;25.77;69.95